sensor_id;sensor_type;location;lat;lon;timestamp;temperature;humidity
46976;DHT22;32724;51.094;6.996;2023-12-20T00:02:13;7.80;99.90
46976;DHT22;32724;51.094;6.996;2023-12-20T00:04:39;7.80;99.90
46976;DHT22;32724;51.094;6.996;2023-12-20T00:07:04;7.90;99.90
46976;DHT22;32724;51.094;6.996;2023-12-20T00:09:30;7.90;99.90
46976;DHT22;32724;51.094;6.996;2023-12-20T00:11:55;7.90;99.90
46976;DHT22;32724;51.094;6.996;2023-12-20T00:14:22;7.90;99.90
46976;DHT22;32724;51.094;6.996;2023-12-20T00:16:47;8.00;99.90
46976;DHT22;32724;51.094;6.996;2023-12-20T00:19:13;8.00;99.90
46976;DHT22;32724;51.094;6.996;2023-12-20T00:21:38;8.00;99.90
46976;DHT22;32724;51.094;6.996;2023-12-20T00:24:05;7.80;99.90
46976;DHT22;32724;51.094;6.996;2023-12-20T00:26:30;7.70;99.90
46976;DHT22;32724;51.094;6.996;2023-12-20T00:28:56;7.70;99.90
46976;DHT22;32724;51.094;6.996;2023-12-20T00:31:21;7.60;99.90
46976;DHT22;32724;51.094;6.996;2023-12-20T00:33:47;7.50;99.90
46976;DHT22;32724;51.094;6.996;2023-12-20T00:36:13;7.20;99.90
46976;DHT22;32724;51.094;6.996;2023-12-20T00:38:38;7.20;99.90
46976;DHT22;32724;51.094;6.996;2023-12-20T00:41:04;7.10;99.90
46976;DHT22;32724;51.094;6.996;2023-12-20T00:43:29;7.00;99.90
46976;DHT22;32724;51.094;6.996;2023-12-20T00:45:55;7.00;99.90
46976;DHT22;32724;51.094;6.996;2023-12-20T00:48:21;6.90;99.90
46976;DHT22;32724;51.094;6.996;2023-12-20T00:50:46;6.90;99.90
46976;DHT22;32724;51.094;6.996;2023-12-20T00:53:12;6.90;99.90
46976;DHT22;32724;51.094;6.996;2023-12-20T00:55:38;6.90;99.90
46976;DHT22;32724;51.094;6.996;2023-12-20T00:58:03;6.80;99.90
46976;DHT22;32724;51.094;6.996;2023-12-20T01:00:29;6.80;99.90
46976;DHT22;32724;51.094;6.996;2023-12-20T01:02:54;6.80;99.90
46976;DHT22;32724;51.094;6.996;2023-12-20T01:05:20;6.80;99.90
46976;DHT22;32724;51.094;6.996;2023-12-20T01:07:48;6.80;99.90
46976;DHT22;32724;51.094;6.996;2023-12-20T01:10:14;6.70;99.90
46976;DHT22;32724;51.094;6.996;2023-12-20T01:12:40;6.60;99.90
46976;DHT22;32724;51.094;6.996;2023-12-20T01:15:06;6.50;99.90
46976;DHT22;32724;51.094;6.996;2023-12-20T01:17:31;6.50;99.90
46976;DHT22;32724;51.094;6.996;2023-12-20T01:19:57;6.40;99.90
46976;DHT22;32724;51.094;6.996;2023-12-20T01:22:23;6.40;99.90
46976;DHT22;32724;51.094;6.996;2023-12-20T01:24:49;6.50;99.90
46976;DHT22;32724;51.094;6.996;2023-12-20T01:27:14;6.80;99.90
46976;DHT22;32724;51.094;6.996;2023-12-20T01:29:40;6.80;99.90
46976;DHT22;32724;51.094;6.996;2023-12-20T01:32:06;7.00;99.90
46976;DHT22;32724;51.094;6.996;2023-12-20T01:34:31;7.00;99.90
46976;DHT22;32724;51.094;6.996;2023-12-20T01:36:57;7.10;99.90
46976;DHT22;32724;51.094;6.996;2023-12-20T01:39:23;7.10;99.90
46976;DHT22;32724;51.094;6.996;2023-12-20T01:41:49;7.00;99.90
46976;DHT22;32724;51.094;6.996;2023-12-20T01:44:14;6.90;99.90
46976;DHT22;32724;51.094;6.996;2023-12-20T01:46:40;6.60;99.90
46976;DHT22;32724;51.094;6.996;2023-12-20T01:49:06;6.60;99.90
46976;DHT22;32724;51.094;6.996;2023-12-20T01:51:33;6.70;99.90
46976;DHT22;32724;51.094;6.996;2023-12-20T01:53:59;6.70;99.90
46976;DHT22;32724;51.094;6.996;2023-12-20T01:56:26;6.70;99.90
46976;DHT22;32724;51.094;6.996;2023-12-20T01:58:54;6.70;99.90
46976;DHT22;32724;51.094;6.996;2023-12-20T02:01:21;6.80;99.90
46976;DHT22;32724;51.094;6.996;2023-12-20T02:03:47;6.70;99.90
46976;DHT22;32724;51.094;6.996;2023-12-20T02:06:12;6.70;99.90
46976;DHT22;32724;51.094;6.996;2023-12-20T02:08:38;6.60;99.90
46976;DHT22;32724;51.094;6.996;2023-12-20T02:11:04;6.70;99.90
46976;DHT22;32724;51.094;6.996;2023-12-20T02:13:31;6.60;99.90
46976;DHT22;32724;51.094;6.996;2023-12-20T02:15:56;6.50;99.90
46976;DHT22;32724;51.094;6.996;2023-12-20T02:18:22;6.50;99.90
46976;DHT22;32724;51.094;6.996;2023-12-20T02:20:48;6.50;99.90
46976;DHT22;32724;51.094;6.996;2023-12-20T02:23:13;6.40;99.90
46976;DHT22;32724;51.094;6.996;2023-12-20T02:25:39;6.30;99.90
46976;DHT22;32724;51.094;6.996;2023-12-20T02:28:05;6.20;99.90
46976;DHT22;32724;51.094;6.996;2023-12-20T02:30:31;6.00;99.90
46976;DHT22;32724;51.094;6.996;2023-12-20T02:32:57;6.00;99.90
46976;DHT22;32724;51.094;6.996;2023-12-20T02:35:25;5.90;99.90
46976;DHT22;32724;51.094;6.996;2023-12-20T02:37:50;5.90;99.90
46976;DHT22;32724;51.094;6.996;2023-12-20T02:40:16;5.80;99.90
46976;DHT22;32724;51.094;6.996;2023-12-20T02:42:41;5.80;99.90
46976;DHT22;32724;51.094;6.996;2023-12-20T02:45:07;5.70;99.90
46976;DHT22;32724;51.094;6.996;2023-12-20T02:47:33;5.60;99.90
46976;DHT22;32724;51.094;6.996;2023-12-20T02:49:58;5.60;99.90
46976;DHT22;32724;51.094;6.996;2023-12-20T02:52:24;5.70;99.90
46976;DHT22;32724;51.094;6.996;2023-12-20T02:54:50;5.80;99.90
46976;DHT22;32724;51.094;6.996;2023-12-20T02:57:15;5.80;99.90
46976;DHT22;32724;51.094;6.996;2023-12-20T02:59:41;5.90;99.90
46976;DHT22;32724;51.094;6.996;2023-12-20T03:02:06;5.90;99.90
46976;DHT22;32724;51.094;6.996;2023-12-20T03:04:32;6.00;99.90
46976;DHT22;32724;51.094;6.996;2023-12-20T03:06:58;6.00;99.90
46976;DHT22;32724;51.094;6.996;2023-12-20T03:09:23;5.60;99.90
46976;DHT22;32724;51.094;6.996;2023-12-20T03:11:49;5.70;99.90
46976;DHT22;32724;51.094;6.996;2023-12-20T03:14:14;5.70;99.90
46976;DHT22;32724;51.094;6.996;2023-12-20T03:16:40;5.70;99.90
46976;DHT22;32724;51.094;6.996;2023-12-20T03:19:05;5.80;99.90
46976;DHT22;32724;51.094;6.996;2023-12-20T03:21:31;5.80;99.90
46976;DHT22;32724;51.094;6.996;2023-12-20T03:23:56;5.80;99.90
46976;DHT22;32724;51.094;6.996;2023-12-20T03:26:22;5.80;99.90
46976;DHT22;32724;51.094;6.996;2023-12-20T03:28:48;5.90;99.90
46976;DHT22;32724;51.094;6.996;2023-12-20T03:31:14;6.10;99.90
46976;DHT22;32724;51.094;6.996;2023-12-20T03:33:39;5.90;99.90
46976;DHT22;32724;51.094;6.996;2023-12-20T03:36:06;5.80;99.90
46976;DHT22;32724;51.094;6.996;2023-12-20T03:38:31;5.80;99.90
46976;DHT22;32724;51.094;6.996;2023-12-20T03:40:57;5.90;99.90
46976;DHT22;32724;51.094;6.996;2023-12-20T03:43:22;5.90;99.90
46976;DHT22;32724;51.094;6.996;2023-12-20T03:45:48;5.90;99.90
46976;DHT22;32724;51.094;6.996;2023-12-20T03:48:13;5.90;99.90
46976;DHT22;32724;51.094;6.996;2023-12-20T03:50:39;5.90;99.90
46976;DHT22;32724;51.094;6.996;2023-12-20T03:53:04;5.80;99.90
46976;DHT22;32724;51.094;6.996;2023-12-20T03:55:30;5.80;99.90
46976;DHT22;32724;51.094;6.996;2023-12-20T03:57:55;5.80;99.90
46976;DHT22;32724;51.094;6.996;2023-12-20T04:00:21;5.70;99.90
46976;DHT22;32724;51.094;6.996;2023-12-20T04:02:47;5.80;99.90
46976;DHT22;32724;51.094;6.996;2023-12-20T04:05:12;5.70;99.90
46976;DHT22;32724;51.094;6.996;2023-12-20T04:07:38;5.70;99.90
46976;DHT22;32724;51.094;6.996;2023-12-20T04:10:04;5.60;99.90
46976;DHT22;32724;51.094;6.996;2023-12-20T04:12:30;5.60;99.90
46976;DHT22;32724;51.094;6.996;2023-12-20T04:14:57;5.60;99.90
46976;DHT22;32724;51.094;6.996;2023-12-20T04:17:22;5.60;99.90
46976;DHT22;32724;51.094;6.996;2023-12-20T04:19:49;5.60;99.90
46976;DHT22;32724;51.094;6.996;2023-12-20T04:22:15;5.60;99.90
46976;DHT22;32724;51.094;6.996;2023-12-20T04:24:40;5.60;99.90
46976;DHT22;32724;51.094;6.996;2023-12-20T04:27:07;5.60;99.90
46976;DHT22;32724;51.094;6.996;2023-12-20T04:29:33;5.60;99.90
46976;DHT22;32724;51.094;6.996;2023-12-20T04:31:59;5.60;99.90
46976;DHT22;32724;51.094;6.996;2023-12-20T04:34:24;5.60;99.90
46976;DHT22;32724;51.094;6.996;2023-12-20T04:36:50;5.70;99.90
46976;DHT22;32724;51.094;6.996;2023-12-20T04:39:15;5.80;99.90
46976;DHT22;32724;51.094;6.996;2023-12-20T04:41:41;5.80;99.90
46976;DHT22;32724;51.094;6.996;2023-12-20T04:44:06;5.80;99.90
46976;DHT22;32724;51.094;6.996;2023-12-20T04:46:32;5.80;99.90
46976;DHT22;32724;51.094;6.996;2023-12-20T04:48:58;5.70;99.90
46976;DHT22;32724;51.094;6.996;2023-12-20T04:51:23;5.70;99.90
46976;DHT22;32724;51.094;6.996;2023-12-20T04:53:49;5.70;99.90
46976;DHT22;32724;51.094;6.996;2023-12-20T04:56:14;5.50;99.90
46976;DHT22;32724;51.094;6.996;2023-12-20T04:58:40;5.50;99.90
46976;DHT22;32724;51.094;6.996;2023-12-20T05:01:06;5.60;99.90
46976;DHT22;32724;51.094;6.996;2023-12-20T05:03:32;5.50;99.90
46976;DHT22;32724;51.094;6.996;2023-12-20T05:05:58;5.50;99.90
46976;DHT22;32724;51.094;6.996;2023-12-20T05:08:23;5.50;99.90
46976;DHT22;32724;51.094;6.996;2023-12-20T05:10:50;5.70;99.90
46976;DHT22;32724;51.094;6.996;2023-12-20T05:13:16;5.70;99.90
46976;DHT22;32724;51.094;6.996;2023-12-20T05:15:41;5.70;99.90
46976;DHT22;32724;51.094;6.996;2023-12-20T05:18:07;5.70;99.90
46976;DHT22;32724;51.094;6.996;2023-12-20T05:20:32;5.70;99.90
46976;DHT22;32724;51.094;6.996;2023-12-20T05:22:58;5.70;99.90
46976;DHT22;32724;51.094;6.996;2023-12-20T05:25:23;5.80;99.90
46976;DHT22;32724;51.094;6.996;2023-12-20T05:27:50;5.80;99.90
46976;DHT22;32724;51.094;6.996;2023-12-20T05:30:16;5.70;99.90
46976;DHT22;32724;51.094;6.996;2023-12-20T05:32:41;5.80;99.90
46976;DHT22;32724;51.094;6.996;2023-12-20T05:35:07;5.80;99.90
46976;DHT22;32724;51.094;6.996;2023-12-20T05:37:33;5.80;99.90
46976;DHT22;32724;51.094;6.996;2023-12-20T05:39:58;5.70;99.90
46976;DHT22;32724;51.094;6.996;2023-12-20T05:42:24;5.70;99.90
46976;DHT22;32724;51.094;6.996;2023-12-20T05:44:49;5.70;99.90
46976;DHT22;32724;51.094;6.996;2023-12-20T05:47:15;5.70;99.90
46976;DHT22;32724;51.094;6.996;2023-12-20T05:49:40;5.70;99.90
46976;DHT22;32724;51.094;6.996;2023-12-20T05:52:06;5.70;99.90
46976;DHT22;32724;51.094;6.996;2023-12-20T05:54:31;5.50;99.90
46976;DHT22;32724;51.094;6.996;2023-12-20T05:56:57;5.30;99.90
46976;DHT22;32724;51.094;6.996;2023-12-20T05:59:22;5.30;99.90
46976;DHT22;32724;51.094;6.996;2023-12-20T06:01:48;5.30;99.90
46976;DHT22;32724;51.094;6.996;2023-12-20T06:04:14;5.30;99.90
46976;DHT22;32724;51.094;6.996;2023-12-20T06:06:43;5.50;99.90
46976;DHT22;32724;51.094;6.996;2023-12-20T06:09:09;5.60;99.90
46976;DHT22;32724;51.094;6.996;2023-12-20T06:11:35;5.70;99.90
46976;DHT22;32724;51.094;6.996;2023-12-20T06:14:00;5.70;99.90
46976;DHT22;32724;51.094;6.996;2023-12-20T06:16:26;5.80;99.90
46976;DHT22;32724;51.094;6.996;2023-12-20T06:18:51;5.80;99.90
46976;DHT22;32724;51.094;6.996;2023-12-20T06:21:17;5.80;99.90
46976;DHT22;32724;51.094;6.996;2023-12-20T06:23:43;6.00;99.90
46976;DHT22;32724;51.094;6.996;2023-12-20T06:26:08;6.00;99.90
46976;DHT22;32724;51.094;6.996;2023-12-20T06:28:34;5.70;99.90
46976;DHT22;32724;51.094;6.996;2023-12-20T06:30:59;5.60;99.90
46976;DHT22;32724;51.094;6.996;2023-12-20T06:33:26;5.60;99.90
46976;DHT22;32724;51.094;6.996;2023-12-20T06:35:51;5.70;99.90
46976;DHT22;32724;51.094;6.996;2023-12-20T06:38:18;5.70;99.90
46976;DHT22;32724;51.094;6.996;2023-12-20T06:40:43;5.80;99.90
46976;DHT22;32724;51.094;6.996;2023-12-20T06:43:09;5.80;99.90
46976;DHT22;32724;51.094;6.996;2023-12-20T06:45:35;5.80;99.90
46976;DHT22;32724;51.094;6.996;2023-12-20T06:48:00;5.80;99.90
46976;DHT22;32724;51.094;6.996;2023-12-20T06:50:26;5.80;99.90
46976;DHT22;32724;51.094;6.996;2023-12-20T06:52:51;5.90;99.90
46976;DHT22;32724;51.094;6.996;2023-12-20T06:55:18;5.90;99.90
46976;DHT22;32724;51.094;6.996;2023-12-20T06:57:43;6.00;99.90
46976;DHT22;32724;51.094;6.996;2023-12-20T07:00:12;6.00;99.90
46976;DHT22;32724;51.094;6.996;2023-12-20T07:02:38;6.00;99.90
46976;DHT22;32724;51.094;6.996;2023-12-20T07:05:04;6.10;99.90
46976;DHT22;32724;51.094;6.996;2023-12-20T07:07:29;6.10;99.90
46976;DHT22;32724;51.094;6.996;2023-12-20T07:09:55;6.10;99.90
46976;DHT22;32724;51.094;6.996;2023-12-20T07:12:21;6.20;99.90
46976;DHT22;32724;51.094;6.996;2023-12-20T07:14:46;6.20;99.90
46976;DHT22;32724;51.094;6.996;2023-12-20T07:17:12;6.20;99.90
46976;DHT22;32724;51.094;6.996;2023-12-20T07:19:40;6.20;99.90
46976;DHT22;32724;51.094;6.996;2023-12-20T07:22:06;6.20;99.90
46976;DHT22;32724;51.094;6.996;2023-12-20T07:24:32;6.30;99.90
46976;DHT22;32724;51.094;6.996;2023-12-20T07:26:59;6.30;99.90
46976;DHT22;32724;51.094;6.996;2023-12-20T07:29:25;6.20;99.90
46976;DHT22;32724;51.094;6.996;2023-12-20T07:31:50;6.10;99.90
46976;DHT22;32724;51.094;6.996;2023-12-20T07:34:17;6.10;99.90
46976;DHT22;32724;51.094;6.996;2023-12-20T07:36:43;6.10;99.90
46976;DHT22;32724;51.094;6.996;2023-12-20T07:39:08;6.20;99.90
46976;DHT22;32724;51.094;6.996;2023-12-20T07:41:34;6.10;99.90
46976;DHT22;32724;51.094;6.996;2023-12-20T07:43:59;5.90;99.90
46976;DHT22;32724;51.094;6.996;2023-12-20T07:46:25;6.00;99.90
46976;DHT22;32724;51.094;6.996;2023-12-20T07:48:51;5.90;99.90
46976;DHT22;32724;51.094;6.996;2023-12-20T07:51:16;6.00;99.90
46976;DHT22;32724;51.094;6.996;2023-12-20T07:53:42;6.00;99.90
46976;DHT22;32724;51.094;6.996;2023-12-20T07:56:19;6.10;99.90
46976;DHT22;32724;51.094;6.996;2023-12-20T07:58:46;6.10;99.90
46976;DHT22;32724;51.094;6.996;2023-12-20T08:01:13;6.10;99.90
46976;DHT22;32724;51.094;6.996;2023-12-20T08:03:39;6.10;99.90
46976;DHT22;32724;51.094;6.996;2023-12-20T08:06:04;6.10;99.90
46976;DHT22;32724;51.094;6.996;2023-12-20T08:08:30;6.10;99.90
46976;DHT22;32724;51.094;6.996;2023-12-20T08:10:55;6.10;99.90
46976;DHT22;32724;51.094;6.996;2023-12-20T08:13:23;6.10;99.90
46976;DHT22;32724;51.094;6.996;2023-12-20T08:15:51;6.10;99.90
46976;DHT22;32724;51.094;6.996;2023-12-20T08:18:17;6.10;99.90
46976;DHT22;32724;51.094;6.996;2023-12-20T08:20:42;6.20;99.90
46976;DHT22;32724;51.094;6.996;2023-12-20T08:23:08;6.20;99.90
46976;DHT22;32724;51.094;6.996;2023-12-20T08:25:33;6.10;99.90
46976;DHT22;32724;51.094;6.996;2023-12-20T08:27:59;6.20;99.90
46976;DHT22;32724;51.094;6.996;2023-12-20T08:30:24;6.20;99.90
46976;DHT22;32724;51.094;6.996;2023-12-20T08:32:50;6.30;99.90
46976;DHT22;32724;51.094;6.996;2023-12-20T08:35:16;6.30;99.90
46976;DHT22;32724;51.094;6.996;2023-12-20T08:37:42;6.30;99.90
46976;DHT22;32724;51.094;6.996;2023-12-20T08:40:08;6.40;99.90
46976;DHT22;32724;51.094;6.996;2023-12-20T08:42:33;6.40;99.90
46976;DHT22;32724;51.094;6.996;2023-12-20T08:44:59;6.40;99.90
46976;DHT22;32724;51.094;6.996;2023-12-20T08:47:25;6.40;99.90
46976;DHT22;32724;51.094;6.996;2023-12-20T08:49:50;6.40;99.90
46976;DHT22;32724;51.094;6.996;2023-12-20T08:52:16;6.40;99.90
46976;DHT22;32724;51.094;6.996;2023-12-20T08:54:42;6.30;99.90
46976;DHT22;32724;51.094;6.996;2023-12-20T08:57:07;6.30;99.90
46976;DHT22;32724;51.094;6.996;2023-12-20T08:59:33;6.30;99.90
46976;DHT22;32724;51.094;6.996;2023-12-20T09:01:58;6.30;99.90
46976;DHT22;32724;51.094;6.996;2023-12-20T09:04:24;6.30;99.90
46976;DHT22;32724;51.094;6.996;2023-12-20T09:06:50;6.30;99.90
46976;DHT22;32724;51.094;6.996;2023-12-20T09:09:16;6.30;99.90
46976;DHT22;32724;51.094;6.996;2023-12-20T09:11:41;6.30;99.90
46976;DHT22;32724;51.094;6.996;2023-12-20T09:14:07;6.40;99.90
46976;DHT22;32724;51.094;6.996;2023-12-20T09:16:33;6.30;99.90
46976;DHT22;32724;51.094;6.996;2023-12-20T09:18:58;6.30;99.90
46976;DHT22;32724;51.094;6.996;2023-12-20T09:21:24;6.20;99.90
46976;DHT22;32724;51.094;6.996;2023-12-20T09:23:50;6.30;99.90
46976;DHT22;32724;51.094;6.996;2023-12-20T09:26:15;6.30;99.90
46976;DHT22;32724;51.094;6.996;2023-12-20T09:28:41;6.40;99.90
46976;DHT22;32724;51.094;6.996;2023-12-20T09:31:07;6.50;99.90
46976;DHT22;32724;51.094;6.996;2023-12-20T09:33:33;6.50;99.90
46976;DHT22;32724;51.094;6.996;2023-12-20T09:35:59;6.60;99.90
46976;DHT22;32724;51.094;6.996;2023-12-20T09:38:24;6.60;99.90
46976;DHT22;32724;51.094;6.996;2023-12-20T09:40:50;6.60;99.90
46976;DHT22;32724;51.094;6.996;2023-12-20T09:43:19;6.70;99.90
46976;DHT22;32724;51.094;6.996;2023-12-20T09:45:47;6.70;99.90
46976;DHT22;32724;51.094;6.996;2023-12-20T09:48:13;6.70;99.90
46976;DHT22;32724;51.094;6.996;2023-12-20T09:50:40;6.70;99.90
46976;DHT22;32724;51.094;6.996;2023-12-20T09:53:08;6.60;99.90
46976;DHT22;32724;51.094;6.996;2023-12-20T09:55:36;6.40;99.90
46976;DHT22;32724;51.094;6.996;2023-12-20T09:58:01;6.40;99.90
46976;DHT22;32724;51.094;6.996;2023-12-20T10:00:27;6.40;99.90
46976;DHT22;32724;51.094;6.996;2023-12-20T10:03:00;6.50;99.90
46976;DHT22;32724;51.094;6.996;2023-12-20T10:05:30;6.50;99.90
46976;DHT22;32724;51.094;6.996;2023-12-20T10:07:55;6.30;99.90
46976;DHT22;32724;51.094;6.996;2023-12-20T10:10:21;6.30;99.90
46976;DHT22;32724;51.094;6.996;2023-12-20T10:13:06;6.30;99.90
46976;DHT22;32724;51.094;6.996;2023-12-20T10:15:33;6.30;99.90
46976;DHT22;32724;51.094;6.996;2023-12-20T10:17:59;6.40;99.90
46976;DHT22;32724;51.094;6.996;2023-12-20T10:20:25;6.30;99.90
46976;DHT22;32724;51.094;6.996;2023-12-20T10:22:52;6.30;99.90
46976;DHT22;32724;51.094;6.996;2023-12-20T10:25:19;6.40;99.90
46976;DHT22;32724;51.094;6.996;2023-12-20T10:27:45;6.50;99.90
46976;DHT22;32724;51.094;6.996;2023-12-20T10:30:11;6.60;99.90
46976;DHT22;32724;51.094;6.996;2023-12-20T10:32:37;6.70;99.90
46976;DHT22;32724;51.094;6.996;2023-12-20T10:35:02;6.70;99.90
46976;DHT22;32724;51.094;6.996;2023-12-20T10:37:28;6.80;99.90
46976;DHT22;32724;51.094;6.996;2023-12-20T10:39:54;6.80;99.90
46976;DHT22;32724;51.094;6.996;2023-12-20T10:42:26;6.80;99.90
46976;DHT22;32724;51.094;6.996;2023-12-20T10:44:52;6.80;99.90
46976;DHT22;32724;51.094;6.996;2023-12-20T10:47:19;6.90;99.90
46976;DHT22;32724;51.094;6.996;2023-12-20T10:49:45;6.90;99.90
46976;DHT22;32724;51.094;6.996;2023-12-20T10:52:12;6.70;99.90
46976;DHT22;32724;51.094;6.996;2023-12-20T10:54:38;6.80;99.90
46976;DHT22;32724;51.094;6.996;2023-12-20T10:57:06;6.80;99.90
46976;DHT22;32724;51.094;6.996;2023-12-20T10:59:33;6.70;99.90
46976;DHT22;32724;51.094;6.996;2023-12-20T11:01:59;6.80;99.90
46976;DHT22;32724;51.094;6.996;2023-12-20T11:05:07;6.70;99.90
46976;DHT22;32724;51.094;6.996;2023-12-20T11:07:39;6.70;99.90
46976;DHT22;32724;51.094;6.996;2023-12-20T11:10:15;6.80;99.90
46976;DHT22;32724;51.094;6.996;2023-12-20T11:12:51;6.80;99.90
46976;DHT22;32724;51.094;6.996;2023-12-20T11:15:18;6.90;99.90
46976;DHT22;32724;51.094;6.996;2023-12-20T11:17:45;6.80;99.90
46976;DHT22;32724;51.094;6.996;2023-12-20T11:20:12;6.80;99.90
46976;DHT22;32724;51.094;6.996;2023-12-20T11:22:40;6.90;99.90
46976;DHT22;32724;51.094;6.996;2023-12-20T11:25:16;7.00;99.90
46976;DHT22;32724;51.094;6.996;2023-12-20T11:27:43;7.10;99.90
46976;DHT22;32724;51.094;6.996;2023-12-20T11:30:09;7.10;99.90
46976;DHT22;32724;51.094;6.996;2023-12-20T11:32:36;7.10;99.90
46976;DHT22;32724;51.094;6.996;2023-12-20T11:37:37;7.10;99.90
46976;DHT22;32724;51.094;6.996;2023-12-20T11:40:07;7.10;99.90
46976;DHT22;32724;51.094;6.996;2023-12-20T11:42:50;7.10;99.90
46976;DHT22;32724;51.094;6.996;2023-12-20T11:45:24;7.10;99.90
46976;DHT22;32724;51.094;6.996;2023-12-20T11:47:51;6.90;99.90
46976;DHT22;32724;51.094;6.996;2023-12-20T11:50:20;6.90;99.90
46976;DHT22;32724;51.094;6.996;2023-12-20T11:52:46;6.80;99.90
46976;DHT22;32724;51.094;6.996;2023-12-20T11:55:12;6.80;99.90
46976;DHT22;32724;51.094;6.996;2023-12-20T11:57:38;6.80;99.90
46976;DHT22;32724;51.094;6.996;2023-12-20T12:00:04;6.80;99.90
46976;DHT22;32724;51.094;6.996;2023-12-20T12:02:30;6.80;99.90
46976;DHT22;32724;51.094;6.996;2023-12-20T12:04:56;6.70;99.90
46976;DHT22;32724;51.094;6.996;2023-12-20T12:07:22;6.70;99.90
46976;DHT22;32724;51.094;6.996;2023-12-20T12:09:47;6.50;99.90
46976;DHT22;32724;51.094;6.996;2023-12-20T12:12:13;6.40;99.90
46976;DHT22;32724;51.094;6.996;2023-12-20T12:14:39;6.40;99.90
46976;DHT22;32724;51.094;6.996;2023-12-20T12:17:14;6.40;99.90
46976;DHT22;32724;51.094;6.996;2023-12-20T12:19:40;6.70;99.90
46976;DHT22;32724;51.094;6.996;2023-12-20T12:22:14;7.00;99.90
46976;DHT22;32724;51.094;6.996;2023-12-20T12:24:44;6.80;99.90
46976;DHT22;32724;51.094;6.996;2023-12-20T12:27:11;6.90;99.90
46976;DHT22;32724;51.094;6.996;2023-12-20T12:29:37;7.00;99.90
46976;DHT22;32724;51.094;6.996;2023-12-20T12:32:09;7.10;99.90
46976;DHT22;32724;51.094;6.996;2023-12-20T12:34:35;7.20;99.90
46976;DHT22;32724;51.094;6.996;2023-12-20T12:37:02;7.20;99.90
46976;DHT22;32724;51.094;6.996;2023-12-20T12:39:29;7.10;99.90
46976;DHT22;32724;51.094;6.996;2023-12-20T12:41:55;7.00;99.90
46976;DHT22;32724;51.094;6.996;2023-12-20T12:44:21;7.10;99.90
46976;DHT22;32724;51.094;6.996;2023-12-20T12:46:49;7.10;99.90
46976;DHT22;32724;51.094;6.996;2023-12-20T12:49:19;7.00;99.90
46976;DHT22;32724;51.094;6.996;2023-12-20T12:51:45;7.00;99.90
46976;DHT22;32724;51.094;6.996;2023-12-20T12:54:12;7.10;99.90
46976;DHT22;32724;51.094;6.996;2023-12-20T12:56:39;7.20;99.90
46976;DHT22;32724;51.094;6.996;2023-12-20T12:59:04;7.20;99.90
46976;DHT22;32724;51.094;6.996;2023-12-20T13:01:31;7.30;99.90
46976;DHT22;32724;51.094;6.996;2023-12-20T13:03:56;7.40;99.90
46976;DHT22;32724;51.094;6.996;2023-12-20T13:06:22;7.40;99.90
46976;DHT22;32724;51.094;6.996;2023-12-20T13:08:48;7.50;99.90
46976;DHT22;32724;51.094;6.996;2023-12-20T13:11:13;7.60;99.90
46976;DHT22;32724;51.094;6.996;2023-12-20T13:13:39;7.60;99.90
46976;DHT22;32724;51.094;6.996;2023-12-20T13:16:04;7.40;99.90
46976;DHT22;32724;51.094;6.996;2023-12-20T13:18:30;7.20;99.90
46976;DHT22;32724;51.094;6.996;2023-12-20T13:20:55;7.20;99.90
46976;DHT22;32724;51.094;6.996;2023-12-20T13:23:21;7.20;99.90
46976;DHT22;32724;51.094;6.996;2023-12-20T13:25:46;7.10;99.90
46976;DHT22;32724;51.094;6.996;2023-12-20T13:28:12;7.00;99.90
46976;DHT22;32724;51.094;6.996;2023-12-20T13:30:38;7.10;99.90
46976;DHT22;32724;51.094;6.996;2023-12-20T13:33:04;7.00;99.90
46976;DHT22;32724;51.094;6.996;2023-12-20T13:35:31;6.90;99.90
46976;DHT22;32724;51.094;6.996;2023-12-20T13:37:57;6.90;99.90
46976;DHT22;32724;51.094;6.996;2023-12-20T13:40:23;7.00;99.90
46976;DHT22;32724;51.094;6.996;2023-12-20T13:42:48;7.00;99.90
46976;DHT22;32724;51.094;6.996;2023-12-20T13:45:14;7.00;99.90
46976;DHT22;32724;51.094;6.996;2023-12-20T13:47:39;7.00;99.90
46976;DHT22;32724;51.094;6.996;2023-12-20T13:50:05;7.10;99.90
46976;DHT22;32724;51.094;6.996;2023-12-20T13:52:31;7.10;99.90
46976;DHT22;32724;51.094;6.996;2023-12-20T13:54:56;7.20;99.90
46976;DHT22;32724;51.094;6.996;2023-12-20T13:57:22;7.30;99.90
46976;DHT22;32724;51.094;6.996;2023-12-20T13:59:47;7.30;99.90
46976;DHT22;32724;51.094;6.996;2023-12-20T14:02:13;7.30;99.90
46976;DHT22;32724;51.094;6.996;2023-12-20T14:04:38;7.40;99.90
46976;DHT22;32724;51.094;6.996;2023-12-20T14:07:05;7.40;99.90
46976;DHT22;32724;51.094;6.996;2023-12-20T14:09:30;7.40;99.90
46976;DHT22;32724;51.094;6.996;2023-12-20T14:11:56;7.30;99.90
46976;DHT22;32724;51.094;6.996;2023-12-20T14:14:22;7.30;99.90
46976;DHT22;32724;51.094;6.996;2023-12-20T14:16:48;7.30;99.90
46976;DHT22;32724;51.094;6.996;2023-12-20T14:19:13;7.30;99.90
46976;DHT22;32724;51.094;6.996;2023-12-20T14:21:39;7.40;99.90
46976;DHT22;32724;51.094;6.996;2023-12-20T14:24:05;7.00;99.90
46976;DHT22;32724;51.094;6.996;2023-12-20T14:26:31;7.00;99.90
46976;DHT22;32724;51.094;6.996;2023-12-20T14:28:57;7.10;99.90
46976;DHT22;32724;51.094;6.996;2023-12-20T14:31:22;7.10;99.90
46976;DHT22;32724;51.094;6.996;2023-12-20T14:33:50;7.00;99.90
46976;DHT22;32724;51.094;6.996;2023-12-20T14:36:17;7.10;99.90
46976;DHT22;32724;51.094;6.996;2023-12-20T14:38:43;7.00;99.90
46976;DHT22;32724;51.094;6.996;2023-12-20T14:41:09;7.10;99.90
46976;DHT22;32724;51.094;6.996;2023-12-20T14:43:35;7.30;99.90
46976;DHT22;32724;51.094;6.996;2023-12-20T14:46:00;7.30;99.90
46976;DHT22;32724;51.094;6.996;2023-12-20T14:48:26;7.30;99.90
46976;DHT22;32724;51.094;6.996;2023-12-20T14:50:56;7.50;99.90
46976;DHT22;32724;51.094;6.996;2023-12-20T14:53:21;7.50;99.90
46976;DHT22;32724;51.094;6.996;2023-12-20T14:55:47;7.60;99.90
46976;DHT22;32724;51.094;6.996;2023-12-20T14:58:13;7.60;99.90
46976;DHT22;32724;51.094;6.996;2023-12-20T15:00:40;7.60;99.90
46976;DHT22;32724;51.094;6.996;2023-12-20T15:03:05;7.60;99.90
46976;DHT22;32724;51.094;6.996;2023-12-20T15:05:32;7.60;99.90
46976;DHT22;32724;51.094;6.996;2023-12-20T15:07:57;7.70;99.90
46976;DHT22;32724;51.094;6.996;2023-12-20T15:10:23;7.70;99.90
46976;DHT22;32724;51.094;6.996;2023-12-20T15:12:49;7.70;99.90
46976;DHT22;32724;51.094;6.996;2023-12-20T15:15:14;7.70;99.90
46976;DHT22;32724;51.094;6.996;2023-12-20T15:17:40;7.70;99.90
46976;DHT22;32724;51.094;6.996;2023-12-20T15:20:06;7.50;99.90
46976;DHT22;32724;51.094;6.996;2023-12-20T15:22:35;7.40;99.90
46976;DHT22;32724;51.094;6.996;2023-12-20T15:25:01;7.40;99.90
46976;DHT22;32724;51.094;6.996;2023-12-20T15:27:27;7.30;99.90
46976;DHT22;32724;51.094;6.996;2023-12-20T15:29:52;7.40;99.90
46976;DHT22;32724;51.094;6.996;2023-12-20T15:32:18;7.40;99.90
46976;DHT22;32724;51.094;6.996;2023-12-20T15:34:44;7.30;99.90
46976;DHT22;32724;51.094;6.996;2023-12-20T15:37:10;7.40;99.90
46976;DHT22;32724;51.094;6.996;2023-12-20T15:39:36;7.50;99.90
46976;DHT22;32724;51.094;6.996;2023-12-20T15:42:01;7.50;99.90